Mora, Minnesota
Current Conditions -  °F | °C
As of 3:15 PM on Friday 31 Oct 2014 (Local Time) from KJMR Reporting Station
Clear Clear  
Wind Chill: 32°   Ceiling: Unl
Heat Index: 37°   Visibility: 10mi
Dew Point: 16°   Wind: 7mph
Humidity: 41%   Direction: 60°ENE
Pressure: 30.51"   Gusts: NA
Location:  45.88°N, 93.29°W
Report Text: KJMR 312015Z AUTO 06006KT 10SM CLR 03/M09 A3051 RMK AO2
Loading
Personal Weather Stations






























Interactive Weather Map
Tropical Storm Tracking
New forecast layout! Learn more

10-Day Weather Forecast

Advertisements
Track Severe Weather on mobile